KDWX

Dixon Airport

Dixon, Wyoming, USA
METAR KDWX 161535Z AUTO 13006KT 10SM CLR M02/M07 A3018 RMK AO2 T10191073
Observed Flight Rules
Nov-16 @ 15:35 UTC (30 minutes ago) Visual Flight Rules
Wind Visibility Clouds
130° at 6 knots 10 miles
  • Clear skies
Temperatures Readings
Current -2°C / 28°F
Dewpoint -7°C / 19°F
Humidity 69%
Altimeter 30.18" Hg
Pressure 1022 hPa
Elevation 1996
METAR KDWX 161535Z AUTO 13006KT 10SM CLR M02/M07 A3018 RMK AO2 T10191073
Observed Flight Rules
Nov-16 @ 15:35 UTC
(30 minutes ago)
VFR
Wind Visibility
130° at 6 knots 10 miles
Clouds
  • Clear skies
Temperature Dewpoint
-2°C / 28°F -7°C / 19°F
Humidity Altimeter Pressure
69% 30.18" Hg 1022 hPa